Current Weather

Kenosha Rgnl

Kenosha, Wisconsin (KENW)

Report from: Monday, August 15, 2022 7:53 PM CDT
Current time: Monday, August 15, 2022 9:06 PM CDT

Nearby weather
Weather history
Weather forecast

Temperature20.6°C (69.1°F)
Dew point13.9°C (57.0°F)
Winds 6 kts (3.1 m/s, 6.9 mph) North-Northeast (30°)
Visibility10 mi. (16.1 km)
Clouds Sky clear
Altimeter30.10 in.Hg (1019 mB)
Relative humidity65 %
Density altitude672 ft. (205 m)
Sea-level pressure101.9 kPa (1019 mB, 30.09 in.Hg)
Remarks System requires maintenance
Automated weather observing station with precipitation discriminator
Flight conditions Visual Meteorological Conditions
Raw dataKENW 160053Z 03006KT 10SM CLR 21/14 A3010 RMK AO2 SLP188 T02060139 $
An error has occurred. This application may no longer respond until reloaded. Reload 🗙